.
WxDataArchive / Data Records for 2014-10-24
2014-10-23 October 2014 2014-10-25

Data Records for Friday, 24 October 2014

Time	Temp	Chill	HIndex	Humid	Dewpt	 Wind 	HiWind	WindDir	Rain 	Barom
-----	----	-----	------	-----	-----	------	------	-------	-----	-----
00:00	40.1	40.1	40.1	90	37.4	0	0	---	0.00	30.100 
00:05	39.9	39.9	39.9	90	37.2	0	0	---	0.00	30.100 
00:10	39.9	39.9	39.9	90	37.2	0	0	---	0.00	30.100 
00:15	39.8	39.8	39.8	90	37.1	0	0	---	0.00	30.093 
00:20	39.8	39.8	39.8	90	37.1	0	0	---	0.00	30.093 
00:25	39.6	39.6	39.6	91	37.2	0	0	---	0.00	30.093 
00:30	39.5	39.5	39.5	91	37.1	0	0	---	0.00	30.093 
00:35	39.5	39.5	39.5	91	37.1	0	0	---	0.00	30.093 
00:40	39.3	39.3	39.3	91	36.9	0	0	---	0.00	30.093 
00:45	39.2	39.2	39.2	91	36.8	0	0	---	0.00	30.092 
00:50	39.3	39.3	39.3	91	36.9	0	0	---	0.00	30.092 
00:55	39.3	39.3	39.3	91	36.9	0	0	---	0.00	30.092 
01:00	39.3	39.3	39.3	91	36.9	0	0	---	0.00	30.091 
01:05	39.2	39.2	39.2	91	36.8	0	0	---	0.00	30.091 
01:10	39.1	39.1	39.1	91	36.7	0	0	---	0.00	30.091 
01:15	39.1	39.1	39.1	91	36.7	0	0	---	0.00	30.087 
01:20	38.9	38.9	38.9	91	36.5	0	0	---	0.00	30.087 
01:25	38.9	38.9	38.9	92	36.8	0	0	---	0.00	30.087 
01:30	38.8	38.8	38.8	92	36.7	0	0	---	0.00	30.081 
01:35	38.6	38.6	38.6	92	36.5	0	0	---	0.00	30.081 
01:40	38.5	38.5	38.5	92	36.4	0	0	---	0.00	30.081 
01:45	38.5	38.5	38.5	92	36.4	0	0	---	0.00	30.076 
01:50	38.3	38.3	38.3	92	36.2	0	0	---	0.00	30.076 
01:55	38.2	38.2	38.2	92	36.1	0	0	---	0.00	30.076 
02:00	38.0	38.0	38.0	92	35.9	0	0	---	0.00	30.076 
02:05	38.0	38.0	38.0	92	35.9	0	0	---	0.00	30.076 
02:10	37.9	37.9	37.9	92	35.8	0	0	---	0.00	30.076 
02:15	37.9	37.9	37.9	92	35.8	0	0	---	0.00	30.078 
02:20	37.8	37.8	37.8	92	35.7	0	0	---	0.00	30.078 
02:25	37.8	37.8	37.8	92	35.7	0	0	---	0.00	30.078 
02:30	37.8	37.8	37.8	92	35.7	0	0	---	0.00	30.079 
02:35	37.6	37.6	37.6	92	35.5	0	0	---	0.00	30.079 
02:40	37.6	37.6	37.6	92	35.5	0	0	---	0.00	30.079 
02:45	37.5	37.5	37.5	92	35.4	0	0	---	0.00	30.083 
02:50	37.3	37.3	37.3	92	35.2	0	0	---	0.00	30.083 
02:55	37.2	37.2	37.2	92	35.1	0	0	---	0.00	30.083 
03:00	37.0	37.0	37.0	92	34.9	0	0	---	0.00	30.079 
03:05	37.0	37.0	37.0	92	34.9	0	0	---	0.00	30.079 
03:10	36.9	36.9	36.9	92	34.8	0	0	---	0.00	30.079 
03:15	36.9	36.9	36.9	92	34.8	0	0	---	0.00	30.080 
03:20	36.8	36.8	36.8	92	34.7	0	0	---	0.00	30.080 
03:25	36.8	36.8	36.8	92	34.7	0	0	---	0.00	30.080 
03:30	36.8	36.8	36.8	92	34.7	0	0	---	0.00	30.082 
03:35	36.8	36.8	36.8	92	34.7	0	0	---	0.00	30.082 
03:40	36.6	36.6	36.6	92	34.5	0	0	---	0.00	30.082 
03:45	36.5	36.5	36.5	92	34.4	0	0	---	0.00	30.077 
03:50	36.5	36.5	36.5	92	34.4	0	0	---	0.00	30.077 
03:55	36.5	36.5	36.5	92	34.4	0	0	---	0.00	30.077 
04:00	36.3	36.3	36.3	92	34.2	0	0	---	0.00	30.075 
04:05	36.3	36.3	36.3	92	34.2	0	0	---	0.00	30.075 
04:10	36.3	36.3	36.3	93	34.5	0	0	---	0.00	30.075 
04:15	36.2	36.2	36.2	93	34.4	0	0	---	0.00	30.076 
04:20	36.0	36.0	36.0	93	34.2	0	0	---	0.00	30.076 
04:25	36.0	36.0	36.0	93	34.2	0	0	---	0.00	30.076 
04:30	35.9	35.9	35.9	93	34.1	0	0	---	0.00	30.076 
04:35	35.9	35.9	35.9	93	34.1	0	0	---	0.00	30.076 
04:40	36.0	36.0	36.0	93	34.2	0	0	---	0.00	30.076 
04:45	36.0	36.0	36.0	93	34.2	0	0	---	0.00	30.076 
04:50	36.2	36.2	36.2	93	34.4	0	0	---	0.00	30.076 
04:55	36.3	36.3	36.3	93	34.5	0	0	---	0.00	30.076 
05:00	36.5	36.5	36.5	93	34.7	0	0	---	0.00	30.074 
05:05	36.5	36.5	36.5	93	34.7	0	0	---	0.00	30.074 
05:10	36.3	36.3	36.3	93	34.5	0	0	---	0.00	30.074 
05:15	36.3	36.3	36.3	93	34.5	0	0	---	0.00	30.073 
05:20	36.3	36.3	36.3	93	34.5	0	0	---	0.00	30.073 
05:25	36.5	36.5	36.5	93	34.7	0	0	---	0.00	30.073 
05:30	36.3	36.3	36.3	93	34.5	0	0	---	0.00	30.075 
05:35	36.3	36.3	36.3	93	34.5	0	0	---	0.00	30.075 
05:40	36.3	36.3	36.3	93	34.5	0	0	---	0.00	30.075 
05:45	36.3	36.3	36.3	93	34.5	0	0	---	0.00	30.077 
05:50	36.2	36.2	36.2	93	34.4	0	0	---	0.00	30.077 
05:55	36.2	36.2	36.2	93	34.4	0	0	---	0.00	30.077 
06:00	36.0	36.0	36.0	93	34.2	0	0	---	0.00	30.078 
06:05	36.0	36.0	36.0	93	34.2	0	0	---	0.00	30.078 
06:10	36.0	36.0	36.0	94	34.4	0	0	---	0.00	30.078 
06:15	36.0	36.0	36.0	94	34.4	0	0	---	0.00	30.079 
06:20	36.0	36.0	36.0	94	34.4	0	0	---	0.00	30.079 
06:25	36.0	36.0	36.0	94	34.4	0	0	---	0.00	30.079 
06:30	36.0	36.0	36.0	94	34.4	0	0	---	0.00	30.082 
06:35	36.0	36.0	36.0	94	34.4	0	0	---	0.00	30.082 
06:40	36.0	36.0	36.0	94	34.4	0	0	---	0.00	30.082 
06:45	36.0	36.0	36.0	94	34.4	0	0	---	0.00	30.082 
06:50	36.2	36.2	36.2	94	34.6	0	0	---	0.00	30.082 
06:55	36.2	36.2	36.2	94	34.6	0	0	---	0.00	30.082 
07:00	36.2	36.2	36.2	94	34.6	0	0	---	0.00	30.082 
07:05	36.3	36.3	36.3	94	34.7	0	0	---	0.00	30.082 
07:10	36.3	36.3	36.3	94	34.7	0	0	---	0.00	30.082 
07:15	36.3	36.3	36.3	94	34.7	0	0	---	0.00	30.084 
07:20	36.5	36.5	36.5	94	34.9	0	0	---	0.00	30.084 
07:25	36.5	36.5	36.5	94	34.9	0	0	---	0.00	30.084 
07:30	36.6	36.6	36.6	94	35.0	0	0	---	0.00	30.081 
07:35	36.8	36.8	36.8	94	35.2	0	0	---	0.00	30.081 
07:40	36.9	36.9	36.9	94	35.3	0	0	---	0.00	30.081 
07:45	37.3	37.3	37.3	95	36.0	0	0	---	0.00	30.080 
07:50	37.6	37.6	37.6	94	36.0	0	0	---	0.00	30.080 
07:55	37.9	37.9	37.9	94	36.3	0	0	---	0.00	30.080 
08:00	38.2	38.2	38.2	95	36.9	0	0	---	0.00	30.073 
08:05	38.6	38.6	38.6	95	37.3	0	0	---	0.00	30.073 
08:10	38.9	38.9	38.9	95	37.6	0	0	---	0.00	30.073 
08:15	39.3	39.3	39.3	95	38.0	0	0	---	0.00	30.073 
08:20	39.6	39.6	39.6	95	38.3	0	0	---	0.00	30.073 
08:25	39.9	39.9	39.9	95	38.6	0	0	---	0.00	30.073 
08:30	40.2	40.2	40.2	95	38.9	0	0	---	0.00	30.081 
08:35	40.5	40.5	40.5	95	39.2	0	0	---	0.00	30.081 
08:40	40.6	40.6	40.6	95	39.3	0	0	---	0.00	30.081 
08:45	40.8	40.8	40.8	95	39.5	0	0	---	0.00	30.082 
08:50	41.1	41.1	41.1	95	39.8	0	0	---	0.00	30.082 
08:55	41.2	41.2	41.2	95	39.9	0	0	---	0.00	30.082 
09:00	41.5	41.5	41.5	95	40.2	0	0	---	0.00	30.085 
09:05	41.9	41.9	41.9	95	40.6	0	0	---	0.00	30.085 
09:10	42.5	42.5	42.5	96	41.4	0	0	---	0.00	30.085 
09:15	42.9	42.9	42.9	96	41.8	0	0	---	0.00	30.094 
09:20	43.3	43.3	43.3	96	42.2	0	0	---	0.00	30.094 
09:25	43.9	43.9	43.9	96	42.8	0	0	---	0.00	30.094 
09:30	44.2	44.2	44.2	96	43.1	0	0	---	0.00	30.089 
09:35	44.8	44.8	44.8	96	43.7	0	0	---	0.00	30.089 
09:40	45.2	45.2	45.2	95	43.9	0	0	---	0.00	30.089 
09:45	45.5	45.5	45.5	95	44.2	0	0	---	0.00	30.080 
09:50	46.0	46.0	46.0	95	44.6	0	0	---	0.00	30.080 
09:55	46.2	46.2	46.2	95	44.8	0	1	292	0.00	30.080 
10:00	46.5	46.5	46.5	95	45.1	0	0	---	0.00	30.074 
10:05	46.8	46.8	46.8	94	45.2	0	0	---	0.00	30.074 
10:10	47.1	47.1	47.1	94	45.5	0	0	---	0.00	30.074 
10:15	47.4	47.4	47.4	94	45.8	0	0	---	0.00	30.078 
10:20	47.7	47.7	47.7	93	45.8	0	0	---	0.00	30.078 
10:25	48.2	48.2	48.2	92	46.0	0	1	292	0.00	30.078 
10:30	48.5	48.5	48.5	92	46.3	0	1	292	0.00	30.077 
10:35	48.8	48.8	48.8	90	46.0	0	1	292	0.00	30.077 
10:40	49.2	49.2	49.2	89	46.1	0	0	---	0.00	30.077 
10:45	49.4	49.4	49.4	88	46.0	0	1	292	0.00	30.083 
10:50	49.6	49.6	49.6	87	45.9	0	0	---	0.00	30.083 
10:55	49.8	49.8	49.8	87	46.1	0	0	---	0.00	30.083 
11:00	50.2	50.2	50.2	86	46.2	0	0	---	0.00	30.087 
11:05	50.5	50.5	50.5	85	46.2	0	0	---	0.00	30.087 
11:10	50.8	50.8	50.8	84	46.1	0	0	---	0.00	30.087 
11:15	51.1	51.1	51.1	84	46.4	0	0	---	0.00	30.085 
11:20	51.4	51.4	51.4	82	46.1	0	0	---	0.00	30.085 
11:25	51.6	51.6	51.6	81	46.0	0	1	292	0.00	30.085 
11:30	51.7	51.7	51.7	81	46.1	0	0	---	0.00	30.080 
11:35	52.0	52.0	52.0	81	46.4	0	0	---	0.00	30.080 
11:40	52.2	52.2	52.2	80	46.2	0	1	292	0.00	30.080 
11:45	52.6	52.6	52.6	81	46.9	0	1	292	0.00	30.069 
11:50	52.9	52.9	52.9	80	46.9	0	0	---	0.00	30.069 
11:55	53.1	53.1	53.1	79	46.8	0	1	292	0.00	30.069 
12:00	52.9	52.9	52.9	78	46.2	0	1	292	0.00	30.076 
12:05	53.1	53.1	53.1	79	46.8	0	1	292	0.00	30.076 
12:10	53.2	53.2	53.2	79	46.9	0	1	292	0.00	30.076 
12:15	53.3	53.3	53.3	78	46.6	0	2	292	0.00	30.076 
12:20	53.5	53.5	53.5	78	46.8	0	0	---	0.00	30.076 
12:25	53.8	53.8	53.8	77	46.8	0	1	292	0.00	30.076 
12:30	54.1	54.1	54.1	77	47.0	0	1	292	0.00	30.067 
12:35	54.2	54.2	54.2	77	47.1	0	0	---	0.00	30.067 
12:40	54.5	54.5	54.5	75	46.7	0	1	292	0.00	30.067 
12:45	54.8	54.8	54.8	74	46.7	0	1	292	0.00	30.061 
12:50	55.1	55.1	55.1	74	47.0	0	1	270	0.00	30.061 
12:55	55.1	55.1	55.1	73	46.6	0	2	292	0.00	30.061 
13:00	55.1	55.1	55.1	73	46.6	0	1	270	0.00	30.058 
13:05	55.1	55.1	55.1	72	46.2	0	2	292	0.00	30.058 
13:10	55.1	55.1	55.1	73	46.6	0	1	292	0.00	30.058 
13:15	55.3	55.3	55.3	73	46.8	0	2	292	0.00	30.059 
13:20	55.3	55.3	55.3	73	46.8	1	3	292	0.00	30.059 
13:25	55.3	55.3	55.3	73	46.8	0	2	292	0.00	30.059 
13:30	55.3	55.3	55.3	73	46.8	0	2	292	0.00	30.057 
13:35	55.3	55.3	55.3	73	46.8	0	1	292	0.00	30.057 
13:40	55.4	55.4	55.4	73	46.9	0	1	270	0.00	30.057 
13:45	55.7	55.7	55.7	73	47.2	0	1	292	0.00	30.043 
13:50	55.9	55.9	55.9	73	47.4	0	0	---	0.00	30.043 
13:55	56.3	56.3	56.3	73	47.8	0	1	292	0.00	30.043 
14:00	56.6	56.6	56.6	71	47.3	0	1	292	0.00	30.037 
14:05	56.7	56.7	56.7	71	47.4	0	1	292	0.00	30.037 
14:10	57.0	57.0	57.0	70	47.3	0	0	---	0.00	30.037 
14:15	57.3	57.3	57.3	70	47.6	0	1	292	0.00	30.027 
14:20	57.8	57.8	57.8	69	47.7	0	1	292	0.00	30.027 
14:25	58.1	58.1	58.1	70	48.4	0	1	292	0.00	30.027 
14:30	58.4	58.4	58.4	67	47.5	0	1	292	0.00	30.023 
14:35	58.7	58.7	58.7	67	47.8	0	1	292	0.00	30.023 
14:40	59.0	59.0	59.0	68	48.5	0	1	292	0.00	30.023 
14:45	59.3	59.3	59.3	66	47.9	0	1	292	0.00	30.014 
14:50	59.5	59.5	59.5	67	48.5	0	2	292	0.00	30.014 
14:55	59.5	59.5	59.5	67	48.5	0	3	292	0.00	30.014 
15:00	59.6	59.6	59.6	66	48.2	0	1	292	0.00	30.005 
15:05	59.6	59.6	59.6	65	47.8	0	1	292	0.00	30.005 
15:10	59.8	59.8	59.8	66	48.4	0	0	---	0.00	30.005 
15:15	59.8	59.8	59.8	65	48.0	0	1	292	0.00	29.998 
15:20	59.9	59.9	59.9	65	48.1	0	2	292	0.00	29.998 
15:25	59.9	59.9	59.9	66	48.5	0	1	292	0.00	29.998 
15:30	60.1	60.1	60.1	65	48.3	0	1	270	0.00	29.995 
15:35	60.1	60.1	60.1	65	48.3	0	2	270	0.00	29.995 
15:40	60.1	60.1	60.1	65	48.3	0	2	292	0.00	29.995 
15:45	60.2	60.2	60.2	65	48.4	0	1	292	0.00	29.992 
15:50	60.4	60.4	60.4	65	48.6	0	1	292	0.00	29.992 
15:55	60.2	60.2	60.2	65	48.4	0	0	---	0.00	29.992 
16:00	60.5	60.5	60.5	68	49.9	0	2	292	0.00	29.994 
16:05	60.7	60.7	60.7	67	49.7	0	1	292	0.00	29.994 
16:10	60.9	60.9	60.9	68	50.3	0	0	---	0.00	29.994 
16:15	61.0	61.0	61.0	67	50.0	0	1	292	0.00	29.991 
16:20	61.2	61.2	61.2	67	50.2	0	2	292	0.00	29.991 
16:25	61.2	61.2	61.2	65	49.3	0	2	292	0.00	29.991 
16:30	61.3	61.3	61.3	65	49.4	0	1	292	0.00	29.989 
16:35	61.3	61.3	61.3	65	49.4	0	1	292	0.00	29.989 
16:40	61.2	61.2	61.2	64	48.9	0	2	292	0.00	29.989 
16:45	61.2	61.2	61.2	65	49.3	0	1	292	0.00	29.988 
16:50	61.2	61.2	61.2	65	49.3	0	0	---	0.00	29.988 
16:55	61.0	61.0	61.0	65	49.1	0	0	---	0.00	29.988 
17:00	61.0	61.0	61.0	65	49.1	0	2	270	0.00	29.986 
17:05	61.0	61.0	61.0	66	49.6	0	0	---	0.00	29.986 
17:10	61.0	61.0	61.0	67	50.0	0	0	---	0.00	29.986 
17:15	60.9	60.9	60.9	67	49.9	0	0	---	0.00	29.979 
17:20	60.9	60.9	60.9	67	49.9	0	0	---	0.00	29.979 
17:25	60.7	60.7	60.7	68	50.1	0	0	---	0.00	29.979 
17:30	60.7	60.7	60.7	68	50.1	0	0	---	0.00	29.976 
17:35	60.7	60.7	60.7	69	50.5	0	0	---	0.00	29.976 
17:40	60.7	60.7	60.7	68	50.1	0	0	---	0.00	29.976 
17:45	60.9	60.9	60.9	67	49.9	0	1	270	0.00	29.973 
17:50	60.9	60.9	60.9	68	50.3	0	0	---	0.00	29.973 
17:55	60.9	60.9	60.9	68	50.3	0	0	---	0.00	29.973 
18:00	60.7	60.7	60.7	69	50.5	0	0	---	0.00	29.972 
18:05	60.4	60.4	60.4	70	50.6	0	0	---	0.00	29.972 
18:10	59.9	59.9	59.9	71	50.5	0	0	---	0.00	29.972 
18:15	59.6	59.6	59.6	72	50.6	0	0	---	0.00	29.975 
18:20	59.2	59.2	59.2	73	50.5	0	0	---	0.00	29.975 
18:25	58.9	58.9	58.9	73	50.3	0	0	---	0.00	29.975 
18:30	58.4	58.4	58.4	74	50.1	0	0	---	0.00	29.979 
18:35	58.0	58.0	58.0	76	50.5	0	0	---	0.00	29.979 
18:40	57.5	57.5	57.5	76	50.0	0	0	---	0.00	29.979 
18:45	57.0	57.0	57.0	77	49.9	0	0	---	0.00	29.981 
18:50	56.7	56.7	56.7	78	49.9	0	0	---	0.00	29.981 
18:55	56.5	56.5	56.5	78	49.7	0	0	---	0.00	29.981 
19:00	56.0	56.0	56.0	79	49.6	0	0	---	0.00	29.981 
19:05	55.7	55.7	55.7	81	50.0	0	0	---	0.00	29.981 
19:10	55.3	55.3	55.3	81	49.6	0	0	---	0.00	29.981 
19:15	55.0	55.0	55.0	82	49.6	0	0	---	0.00	29.981 
19:20	54.7	54.7	54.7	83	49.6	0	0	---	0.00	29.981 
19:25	54.4	54.4	54.4	83	49.3	0	0	---	0.00	29.981 
19:30	54.1	54.1	54.1	84	49.4	0	0	---	0.00	29.982 
19:35	53.8	53.8	53.8	84	49.1	0	0	---	0.00	29.982 
19:40	53.5	53.5	53.5	84	48.8	0	0	---	0.00	29.982 
19:45	53.1	53.1	53.1	85	48.7	0	0	---	0.00	29.985 
19:50	52.8	52.8	52.8	85	48.4	0	0	---	0.00	29.985 
19:55	52.5	52.5	52.5	87	48.7	0	0	---	0.00	29.985 
20:00	52.2	52.2	52.2	87	48.4	0	0	---	0.00	29.983 
20:05	52.2	52.2	52.2	88	48.8	0	0	---	0.00	29.983 
20:10	52.2	52.2	52.2	88	48.8	0	0	---	0.00	29.983 
20:15	51.9	51.9	51.9	88	48.5	0	0	---	0.00	29.980 
20:20	51.6	51.6	51.6	88	48.2	0	0	---	0.00	29.980 
20:25	51.3	51.3	51.3	88	47.9	0	0	---	0.00	29.980 
20:30	51.0	51.0	51.0	88	47.6	0	0	---	0.00	29.982 
20:35	50.7	50.7	50.7	88	47.3	0	0	---	0.00	29.982 
20:40	50.5	50.5	50.5	89	47.4	0	0	---	0.00	29.982 
20:45	50.4	50.4	50.4	89	47.3	0	0	---	0.00	29.982 
20:50	50.2	50.2	50.2	89	47.1	0	0	---	0.00	29.982 
20:55	50.1	50.1	50.1	89	47.0	0	0	---	0.00	29.982 
21:00	49.9	49.9	49.9	90	47.1	0	0	---	0.00	29.981 
21:05	49.8	49.8	49.8	90	47.0	0	0	---	0.00	29.981 
21:10	49.8	49.8	49.8	91	47.3	0	0	---	0.00	29.981 
21:15	49.9	49.9	49.9	91	47.4	0	0	---	0.00	29.977 
21:20	50.1	50.1	50.1	92	47.9	0	0	---	0.00	29.977 
21:25	50.4	50.4	50.4	92	48.2	0	0	---	0.00	29.977 
21:30	50.8	50.8	50.8	92	48.6	0	0	---	0.00	29.974 
21:35	50.8	50.8	50.8	92	48.6	0	0	---	0.00	29.974 
21:40	50.8	50.8	50.8	92	48.6	0	0	---	0.00	29.974 
21:45	50.7	50.7	50.7	92	48.5	0	0	---	0.00	29.975 
21:50	50.5	50.5	50.5	92	48.3	0	0	---	0.00	29.975 
21:55	50.5	50.5	50.5	92	48.3	0	0	---	0.00	29.975 
22:00	50.4	50.4	50.4	92	48.2	0	0	---	0.00	29.977 
22:05	50.4	50.4	50.4	92	48.2	0	0	---	0.00	29.977 
22:10	50.5	50.5	50.5	92	48.3	0	0	---	0.00	29.977 
22:15	50.7	50.7	50.7	92	48.5	0	0	---	0.00	29.974 
22:20	50.8	50.8	50.8	93	48.8	0	0	---	0.00	29.974 
22:25	51.1	51.1	51.1	93	49.1	0	0	---	0.00	29.974 
22:30	51.1	51.1	51.1	93	49.1	0	0	---	0.00	29.974 
22:35	51.3	51.3	51.3	93	49.3	0	0	---	0.00	29.974 
22:40	51.3	51.3	51.3	92	49.1	0	0	---	0.00	29.974 
22:45	51.1	51.1	51.1	92	48.9	0	0	---	0.00	29.973 
22:50	51.0	51.0	51.0	92	48.8	0	0	---	0.00	29.973 
22:55	51.0	51.0	51.0	92	48.8	0	0	---	0.00	29.973 
23:00	51.0	51.0	51.0	92	48.8	0	0	---	0.00	29.969 
23:05	51.0	51.0	51.0	92	48.8	0	0	---	0.00	29.969 
23:10	51.0	51.0	51.0	92	48.8	0	0	---	0.00	29.969 
23:15	50.8	50.8	50.8	92	48.6	0	0	---	0.00	29.965 
23:20	50.8	50.8	50.8	92	48.6	0	0	---	0.00	29.965 
23:25	50.7	50.7	50.7	92	48.5	0	0	---	0.00	29.965 
23:30	50.7	50.7	50.7	92	48.5	0	0	---	0.00	29.964 
23:35	50.5	50.5	50.5	92	48.3	0	0	---	0.00	29.964 
23:40	50.5	50.5	50.5	92	48.3	0	0	---	0.00	29.964 
23:45	50.5	50.5	50.5	93	48.6	0	0	---	0.00	29.957 
23:50	50.7	50.7	50.7	93	48.7	0	0	---	0.00	29.957 
23:55	50.8	50.8	50.8	93	48.8	0	0	---	0.00	29.957 

CoCoRaHS
IN-AL-39
A2 Web Hosting
Creative Commons License
GoDaddy
search engine by freefind advanced

loaded 2018-11-13 22:14:06 • last modified 2010-11-18 10:43:29
Privacy PolicyDisclaimer
• wx.awcolley.com is powered by PmWiki v.2002016 •
• all content (unless otherwise noted) © 2018 A W Colley